createdAt,value
2023-06-10T00:01:53.607Z,8.00
2023-06-10T00:04:30.546Z,7.80
2023-06-10T00:07:13.655Z,7.57
2023-06-10T00:09:45.629Z,7.82
2023-06-10T00:12:14.636Z,8.60
2023-06-10T00:14:43.214Z,8.32
2023-06-10T00:17:15.840Z,7.97
2023-06-10T00:19:48.438Z,8.02
2023-06-10T00:22:26.158Z,7.28
2023-06-10T00:25:11.059Z,8.45
2023-06-10T00:27:41.447Z,8.32
2023-06-10T00:30:13.019Z,7.43
2023-06-10T00:32:41.609Z,8.05
2023-06-10T00:35:21.295Z,7.90
2023-06-10T00:37:53.748Z,8.30
2023-06-10T00:40:24.100Z,8.70
2023-06-10T00:42:54.653Z,8.18
2023-06-10T00:45:26.526Z,8.50
2023-06-10T00:47:55.565Z,8.88
2023-06-10T00:50:27.600Z,8.93
2023-06-10T00:53:00.649Z,9.27
2023-06-10T00:55:30.196Z,8.68
2023-06-10T00:57:58.672Z,9.05
2023-06-10T01:00:29.043Z,8.38
2023-06-10T01:02:58.367Z,8.82
2023-06-10T01:05:30.875Z,8.48
2023-06-10T01:08:04.156Z,8.48
2023-06-10T01:10:38.164Z,8.07
2023-06-10T01:13:15.827Z,7.72
2023-06-10T01:15:45.059Z,8.65
2023-06-10T01:18:16.427Z,8.85
2023-06-10T01:20:51.321Z,8.90
2023-06-10T01:23:34.294Z,8.57
2023-06-10T01:26:08.826Z,9.50
2023-06-10T01:28:57.455Z,9.38
2023-06-10T01:31:40.374Z,9.18
2023-06-10T01:34:13.858Z,10.05
2023-06-10T01:36:44.176Z,9.40
2023-06-10T01:39:17.682Z,9.15
2023-06-10T01:41:49.466Z,8.70
2023-06-10T01:44:22.214Z,9.40
2023-06-10T01:46:50.909Z,8.95
2023-06-10T01:49:23.284Z,9.50
2023-06-10T01:51:52.364Z,9.15
2023-06-10T01:54:23.172Z,8.85
2023-06-10T01:56:52.782Z,8.57
2023-06-10T01:59:22.746Z,8.45
2023-06-10T02:01:51.462Z,9.40
2023-06-10T02:04:22.471Z,9.45
2023-06-10T02:07:00.499Z,8.30
2023-06-10T02:09:36.418Z,8.73
2023-06-10T02:12:09.467Z,8.93
2023-06-10T02:14:38.327Z,8.73
2023-06-10T02:17:15.914Z,9.15
2023-06-10T02:19:53.729Z,8.98
2023-06-10T02:22:28.641Z,9.07
2023-06-10T02:25:02.968Z,8.40
2023-06-10T02:27:33.959Z,9.68
2023-06-10T02:30:04.020Z,8.90
2023-06-10T02:32:39.176Z,8.70
2023-06-10T02:35:11.451Z,9.20
2023-06-10T02:37:42.002Z,9.20
2023-06-10T02:40:14.837Z,9.55
2023-06-10T02:42:46.098Z,9.25
2023-06-10T02:45:17.727Z,8.95
2023-06-10T02:47:47.133Z,9.25
2023-06-10T02:50:23.993Z,9.95
2023-06-10T02:53:07.656Z,10.40
2023-06-10T02:55:42.620Z,10.60
2023-06-10T02:58:15.243Z,9.77
2023-06-10T03:00:46.827Z,11.30
2023-06-10T03:03:17.521Z,11.75
2023-06-10T03:06:03.925Z,11.02
2023-06-10T03:08:41.360Z,11.73
2023-06-10T03:11:19.249Z,12.68
2023-06-10T03:13:50.473Z,11.25
2023-06-10T03:16:22.013Z,12.52
2023-06-10T03:18:54.109Z,12.07
2023-06-10T03:21:28.236Z,12.05
2023-06-10T03:23:59.364Z,11.55
2023-06-10T03:26:29.775Z,10.23
2023-06-10T03:28:59.330Z,11.23
2023-06-10T03:31:30.773Z,9.25
2023-06-10T03:34:00.651Z,10.68
2023-06-10T03:36:31.306Z,8.50
2023-06-10T03:39:00.094Z,11.35
2023-06-10T03:41:31.503Z,10.30
2023-06-10T03:44:01.767Z,11.73
2023-06-10T03:46:33.414Z,10.80
2023-06-10T03:49:03.554Z,10.68
2023-06-10T03:51:33.294Z,10.57
2023-06-10T03:54:01.690Z,9.02
2023-06-10T03:56:33.979Z,10.40
2023-06-10T03:59:06.319Z,9.68
2023-06-10T04:01:41.939Z,10.60
2023-06-10T04:04:11.971Z,10.77
2023-06-10T04:06:45.120Z,10.90
2023-06-10T04:09:14.480Z,11.50
2023-06-10T04:11:44.971Z,11.05
2023-06-10T04:14:14.865Z,9.85
2023-06-10T04:16:44.906Z,9.50
2023-06-10T04:19:16.648Z,9.55
2023-06-10T04:21:46.257Z,10.13
2023-06-10T04:24:15.029Z,9.95
2023-06-10T04:26:47.570Z,9.30
2023-06-10T04:29:18.472Z,8.95
2023-06-10T04:31:48.751Z,9.20
2023-06-10T04:34:18.954Z,9.55
2023-06-10T04:36:51.001Z,8.73
2023-06-10T04:39:21.221Z,8.43
2023-06-10T04:41:54.145Z,8.07
2023-06-10T04:44:26.771Z,7.63
2023-06-10T04:46:57.325Z,7.07
2023-06-10T04:49:26.253Z,6.85
2023-06-10T04:51:56.235Z,7.03
2023-06-10T04:54:25.840Z,6.75
2023-06-10T04:57:00.547Z,7.35
2023-06-10T04:59:31.090Z,6.70
2023-06-10T05:02:01.778Z,7.22
2023-06-10T05:04:33.534Z,6.07
2023-06-10T05:07:03.356Z,6.07
2023-06-10T05:09:34.566Z,6.18
2023-06-10T05:12:11.599Z,5.22
2023-06-10T05:14:40.603Z,6.25
2023-06-10T05:17:13.842Z,5.63
2023-06-10T05:19:42.919Z,5.38
2023-06-10T05:22:12.087Z,5.43
2023-06-10T05:24:43.139Z,5.50
2023-06-10T05:27:14.272Z,5.28
2023-06-10T05:29:43.013Z,5.07
2023-06-10T05:32:12.651Z,5.50
2023-06-10T05:34:41.618Z,5.22
2023-06-10T05:37:10.593Z,5.20
2023-06-10T05:39:40.502Z,5.70
2023-06-10T05:42:10.508Z,4.85
2023-06-10T05:44:41.550Z,5.10
2023-06-10T05:47:11.740Z,4.78
2023-06-10T05:49:41.945Z,4.60
2023-06-10T05:52:11.033Z,4.68
2023-06-10T05:54:42.944Z,4.95
2023-06-10T05:57:13.198Z,5.00
2023-06-10T05:59:43.977Z,4.47
2023-06-10T06:02:16.690Z,4.68
2023-06-10T06:04:49.492Z,4.50
2023-06-10T06:07:18.306Z,4.72
2023-06-10T06:09:46.930Z,4.75
2023-06-10T06:12:16.521Z,4.57
2023-06-10T06:14:48.122Z,5.15
2023-06-10T06:17:16.275Z,4.65
2023-06-10T06:19:44.643Z,4.80
2023-06-10T06:22:13.466Z,4.75
2023-06-10T06:24:45.599Z,5.00
2023-06-10T06:27:16.394Z,5.25
2023-06-10T06:29:47.750Z,5.28
2023-06-10T06:32:18.398Z,4.43
2023-06-10T06:34:47.416Z,4.85
2023-06-10T06:37:17.945Z,4.40
2023-06-10T06:39:50.403Z,4.30
2023-06-10T06:42:18.920Z,5.03
2023-06-10T06:45:15.460Z,4.50
2023-06-10T06:47:44.573Z,4.70
2023-06-10T06:50:13.541Z,4.60
2023-06-10T06:52:43.589Z,4.60
2023-06-10T06:55:12.081Z,4.30
2023-06-10T06:57:40.684Z,4.53
2023-06-10T07:00:10.518Z,4.10
2023-06-10T07:02:41.685Z,4.10
2023-06-10T07:05:11.101Z,4.45
2023-06-10T07:07:40.564Z,3.97
2023-06-10T07:10:11.037Z,3.75
2023-06-10T07:12:39.724Z,4.45
2023-06-10T07:15:11.447Z,4.13
2023-06-10T07:17:44.442Z,4.40
2023-06-10T07:20:16.259Z,4.22
2023-06-10T07:22:46.895Z,3.88
2023-06-10T07:25:17.403Z,4.20
2023-06-10T07:27:47.093Z,3.80
2023-06-10T07:30:16.842Z,3.97
2023-06-10T07:32:47.390Z,4.10
2023-06-10T07:35:17.250Z,4.13
2023-06-10T07:37:48.291Z,4.00
2023-06-10T07:40:17.188Z,4.10
2023-06-10T07:42:47.900Z,4.15
2023-06-10T07:45:17.568Z,4.07
2023-06-10T07:47:50.776Z,4.00
2023-06-10T07:50:19.333Z,3.77
2023-06-10T07:52:47.799Z,4.57
2023-06-10T07:55:16.657Z,3.63
2023-06-10T07:57:48.368Z,4.15
2023-06-10T08:00:20.218Z,4.28
2023-06-10T08:02:50.545Z,4.30
2023-06-10T08:05:21.712Z,4.32
2023-06-10T08:07:52.641Z,3.83
2023-06-10T08:10:21.231Z,4.28
2023-06-10T08:12:51.948Z,4.10
2023-06-10T08:15:21.607Z,4.18
2023-06-10T08:17:51.562Z,4.32
2023-06-10T08:20:20.251Z,4.13
2023-06-10T08:22:48.609Z,3.78
2023-06-10T08:25:17.133Z,4.28
2023-06-10T08:27:45.490Z,3.80
2023-06-10T08:30:16.323Z,3.80
2023-06-10T08:32:45.745Z,3.97
2023-06-10T08:35:16.471Z,3.83
2023-06-10T08:37:45.018Z,3.50
2023-06-10T08:40:14.953Z,3.92
2023-06-10T08:42:47.993Z,3.90
2023-06-10T08:47:53.200Z,3.30
2023-06-10T08:50:25.363Z,4.00
2023-06-10T08:53:00.718Z,4.00
2023-06-10T08:55:34.445Z,4.05
2023-06-10T08:58:06.013Z,3.83
2023-06-10T09:00:34.770Z,3.58
2023-06-10T09:03:05.497Z,3.70
2023-06-10T09:05:38.350Z,4.00
2023-06-10T09:08:10.369Z,4.10
2023-06-10T09:10:39.080Z,4.20
2023-06-10T09:13:08.582Z,3.78
2023-06-10T09:15:43.186Z,4.10
2023-06-10T09:18:12.570Z,4.00
2023-06-10T09:20:45.964Z,3.60
2023-06-10T09:23:18.153Z,4.43
2023-06-10T09:25:46.980Z,3.70
2023-06-10T09:28:16.982Z,3.60
2023-06-10T09:30:47.174Z,3.42
2023-06-10T09:33:17.310Z,3.33
2023-06-10T09:35:51.807Z,3.58
2023-06-10T09:38:23.321Z,3.97
2023-06-10T09:40:53.391Z,4.35
2023-06-10T09:43:22.609Z,3.70
2023-06-10T09:45:54.200Z,3.83
2023-06-10T09:48:25.403Z,3.42
2023-06-10T09:50:57.581Z,3.88
2023-06-10T09:53:26.744Z,3.63
2023-06-10T09:55:56.209Z,3.78
2023-06-10T09:58:37.432Z,3.45
2023-06-10T10:01:10.664Z,3.33
2023-06-10T10:03:47.783Z,3.25
2023-06-10T10:06:22.010Z,3.03
2023-06-10T10:08:52.214Z,3.15
2023-06-10T10:11:23.222Z,3.33
2023-06-10T10:13:53.771Z,2.85
2023-06-10T10:16:25.707Z,3.22
2023-06-10T10:18:58.808Z,3.50
2023-06-10T10:21:32.677Z,3.10
2023-06-10T10:24:06.280Z,3.65
2023-06-10T10:29:13.215Z,3.85
2023-06-10T10:31:45.847Z,3.55
2023-06-10T10:34:19.087Z,3.23
2023-06-10T10:36:50.748Z,2.65
2023-06-10T10:39:21.151Z,3.10
2023-06-10T10:41:51.056Z,3.50
2023-06-10T10:44:20.665Z,3.05
2023-06-10T10:46:53.718Z,2.58
2023-06-10T10:49:24.876Z,2.40
2023-06-10T10:52:02.307Z,2.95
2023-06-10T10:54:33.013Z,2.65
2023-06-10T10:57:22.484Z,2.78
2023-06-10T11:00:01.465Z,2.60
2023-06-10T11:02:44.730Z,2.88
2023-06-10T11:05:16.735Z,2.63
2023-06-10T11:07:57.631Z,2.63
2023-06-10T11:10:33.897Z,3.10
2023-06-10T11:13:03.441Z,3.20
2023-06-10T11:15:33.010Z,2.63
2023-06-10T11:18:17.816Z,2.33
2023-06-10T11:21:00.591Z,2.55
2023-06-10T11:23:45.410Z,2.80
2023-06-10T11:26:37.022Z,2.50
2023-06-10T11:29:10.943Z,2.03
2023-06-10T11:31:52.712Z,2.35
2023-06-10T11:34:28.201Z,2.28
2023-06-10T11:36:58.231Z,2.40
2023-06-10T11:39:31.010Z,2.50
2023-06-10T11:42:01.536Z,2.63
2023-06-10T11:44:34.144Z,1.98
2023-06-10T11:47:02.649Z,2.13
2023-06-10T11:49:31.646Z,2.13
2023-06-10T11:52:06.976Z,2.25
2023-06-10T11:54:40.147Z,2.03
2023-06-10T11:57:09.672Z,2.20
2023-06-10T11:59:38.332Z,2.00
2023-06-10T12:02:07.392Z,2.00
2023-06-10T12:04:36.322Z,2.00
2023-06-10T12:07:05.276Z,1.70
2023-06-10T12:09:35.124Z,1.80
2023-06-10T12:12:09.877Z,2.20
2023-06-10T12:15:12.440Z,2.30
2023-06-10T12:17:43.395Z,2.10
2023-06-10T12:20:31.810Z,1.92
2023-06-10T12:23:02.818Z,1.88
2023-06-10T12:25:32.871Z,1.90
2023-06-10T12:28:04.466Z,1.70
2023-06-10T12:30:35.303Z,2.47
2023-06-10T12:33:04.165Z,2.17
2023-06-10T12:35:35.140Z,2.03
2023-06-10T12:38:08.376Z,2.45
2023-06-10T12:40:41.772Z,1.88
2023-06-10T12:43:20.950Z,2.30
2023-06-10T12:45:49.460Z,2.20
2023-06-10T12:48:21.990Z,2.13
2023-06-10T12:50:54.688Z,2.65
2023-06-10T12:53:29.047Z,2.70
2023-06-10T12:55:59.752Z,2.27
2023-06-10T12:58:30.663Z,2.50
2023-06-10T13:01:00.947Z,3.20
2023-06-10T13:03:29.908Z,2.33
2023-06-10T13:05:59.078Z,2.53
2023-06-10T13:08:27.974Z,2.40
2023-06-10T13:10:56.243Z,2.63
2023-06-10T13:13:26.977Z,2.55
2023-06-10T13:15:57.705Z,2.40
2023-06-10T13:18:27.806Z,2.35
2023-06-10T13:20:57.830Z,2.83
2023-06-10T13:23:26.234Z,2.63
2023-06-10T13:25:54.560Z,2.53
2023-06-10T13:28:23.337Z,2.63
2023-06-10T13:30:52.498Z,2.55
2023-06-10T13:33:25.225Z,2.58
2023-06-10T13:35:54.054Z,4.35
2023-06-10T13:38:22.338Z,2.92
2023-06-10T13:40:52.672Z,2.90
2023-06-10T13:43:24.578Z,2.50
2023-06-10T13:45:54.523Z,2.88
2023-06-10T13:48:26.740Z,2.92
2023-06-10T13:50:57.212Z,3.00
2023-06-10T13:53:26.026Z,2.88
2023-06-10T13:56:00.276Z,2.58
2023-06-10T13:58:31.657Z,2.78
2023-06-10T14:01:01.576Z,2.83
2023-06-10T14:03:34.842Z,2.50
2023-06-10T14:06:05.685Z,2.40
2023-06-10T14:08:34.789Z,3.30
2023-06-10T14:11:06.063Z,3.00
2023-06-10T14:13:35.540Z,3.40
2023-06-10T14:16:05.094Z,3.45
2023-06-10T14:18:35.476Z,3.92
2023-06-10T14:21:03.862Z,4.57
2023-06-10T14:23:33.438Z,3.67
2023-06-10T14:26:02.209Z,3.20
2023-06-10T14:28:30.768Z,2.33
2023-06-10T14:30:59.176Z,2.97
2023-06-10T14:33:27.774Z,2.40
2023-06-10T14:35:57.401Z,2.33
2023-06-10T14:38:26.560Z,2.45
2023-06-10T14:40:57.338Z,2.58
2023-06-10T14:43:26.178Z,2.47
2023-06-10T14:45:56.527Z,2.30
2023-06-10T14:48:25.636Z,2.72
2023-06-10T14:50:56.743Z,2.65
2023-06-10T14:53:26.778Z,2.92
2023-06-10T14:55:57.751Z,2.83
2023-06-10T14:58:26.151Z,2.80
2023-06-10T15:00:54.686Z,2.70
2023-06-10T15:03:23.214Z,2.60
2023-06-10T15:05:52.209Z,2.67
2023-06-10T15:08:20.933Z,2.55
2023-06-10T15:10:51.575Z,3.10
2023-06-10T15:13:20.034Z,2.97
2023-06-10T15:15:48.364Z,3.40
2023-06-10T15:18:17.303Z,3.20
2023-06-10T15:20:47.265Z,3.88
2023-06-10T15:23:15.997Z,3.78
2023-06-10T15:25:44.671Z,2.97
2023-06-10T15:28:14.370Z,3.40
2023-06-10T15:30:43.014Z,3.67
2023-06-10T15:33:12.241Z,2.60
2023-06-10T15:35:40.628Z,2.70
2023-06-10T15:38:09.426Z,2.88
2023-06-10T15:40:39.325Z,2.55
2023-06-10T15:43:07.618Z,2.92
2023-06-10T15:45:37.999Z,3.00
2023-06-10T15:48:07.898Z,2.60
2023-06-10T15:50:38.617Z,2.53
2023-06-10T15:53:07.207Z,3.20
2023-06-10T15:55:36.990Z,2.65
2023-06-10T15:58:05.572Z,2.78
2023-06-10T16:00:34.190Z,2.75
2023-06-10T16:03:04.442Z,3.25
2023-06-10T16:05:34.870Z,3.35
2023-06-10T16:08:03.603Z,2.30
2023-06-10T16:10:32.146Z,35.30
2023-06-10T16:13:01.942Z,21.40
2023-06-10T16:15:30.859Z,7.55
2023-06-10T16:17:59.644Z,5.28
2023-06-10T16:20:29.372Z,3.10
2023-06-10T16:23:02.124Z,3.33
2023-06-10T16:25:30.880Z,2.70
2023-06-10T16:28:00.174Z,3.85
2023-06-10T16:30:29.302Z,17.13
2023-06-10T16:32:58.664Z,10.50
2023-06-10T16:35:31.433Z,3.70
2023-06-10T16:38:03.357Z,2.10
2023-06-10T16:40:35.415Z,2.08
2023-06-10T16:43:06.469Z,2.70
2023-06-10T16:45:34.988Z,2.00
2023-06-10T16:48:07.963Z,2.80
2023-06-10T16:50:38.188Z,2.70
2023-06-10T16:53:08.286Z,2.53
2023-06-10T16:55:40.145Z,2.85
2023-06-10T16:58:10.897Z,2.95
2023-06-10T17:00:40.457Z,2.70
2023-06-10T17:03:11.871Z,2.50
2023-06-10T17:05:45.355Z,2.90
2023-06-10T17:22:47.723Z,2.90
2023-06-10T17:25:30.114Z,3.42
2023-06-10T17:27:59.920Z,2.95
2023-06-10T17:30:31.441Z,2.92
2023-06-10T17:33:02.873Z,2.55
2023-06-10T17:35:31.574Z,3.30
2023-06-10T17:38:03.266Z,2.85
2023-06-10T17:40:35.444Z,2.88
2023-06-10T17:43:04.025Z,3.03
2023-06-10T17:45:35.483Z,2.60
2023-06-10T17:48:04.735Z,2.60
2023-06-10T17:50:35.503Z,3.13
2023-06-10T17:53:08.346Z,3.42
2023-06-10T17:55:40.877Z,3.33
2023-06-10T17:58:11.298Z,2.97
2023-06-10T18:00:40.204Z,3.13
2023-06-10T18:03:09.561Z,3.83
2023-06-10T18:05:39.161Z,3.40
2023-06-10T18:08:09.512Z,3.33
2023-06-10T18:10:38.066Z,3.30
2023-06-10T18:13:10.524Z,4.00
2023-06-10T18:15:42.431Z,3.42
2023-06-10T18:18:11.442Z,3.55
2023-06-10T18:20:41.332Z,3.60
2023-06-10T18:23:14.746Z,3.90
2023-06-10T18:25:47.733Z,3.47
2023-06-10T18:28:17.854Z,4.18
2023-06-10T18:30:49.706Z,4.13
2023-06-10T18:33:19.537Z,4.32
2023-06-10T18:35:48.287Z,4.15
2023-06-10T18:38:20.545Z,4.40
2023-06-10T22:41:27.487Z,5.65
2023-06-10T22:43:57.661Z,6.38
2023-06-10T22:46:26.996Z,6.05
2023-06-10T22:48:56.212Z,6.10
2023-06-10T22:51:26.009Z,5.90
2023-06-10T23:43:58.156Z,6.50
2023-06-10T23:46:29.640Z,7.10
2023-06-10T23:49:04.087Z,7.03
2023-06-10T23:51:40.194Z,7.30
2023-06-10T23:54:10.536Z,6.72
2023-06-10T23:56:44.178Z,6.63
2023-06-10T23:59:15.748Z,7.07
